createdAt,value
2023-02-13T00:03:36.805Z,101265.22
2023-02-13T00:06:24.284Z,101236.78
2023-02-13T00:09:11.469Z,101252.19
2023-02-13T00:11:58.846Z,101249.63
2023-02-13T00:14:45.920Z,101220.91
2023-02-13T00:17:33.608Z,101245.31
2023-02-13T00:20:20.848Z,101239.16
2023-02-13T00:23:08.068Z,101255.78
2023-02-13T00:25:55.203Z,101243.91
2023-02-13T00:28:42.906Z,101230.16
2023-02-13T00:31:30.149Z,101240.47
2023-02-13T00:34:17.326Z,101266.69
2023-02-13T00:37:04.444Z,101238.28
2023-02-13T00:39:51.504Z,101261.19
2023-02-13T00:42:38.572Z,101246.75
2023-02-13T00:45:25.764Z,101278.16
2023-02-13T00:48:12.912Z,101244.81
2023-02-13T00:51:00.702Z,101275.59
2023-02-13T00:53:47.956Z,101235.94
2023-02-13T00:56:35.133Z,101282.13
2023-02-13T00:59:22.197Z,101281.00
2023-02-13T01:02:09.360Z,101271.53
2023-02-13T01:04:56.450Z,101265.78
2023-02-13T01:07:43.668Z,101259.81
2023-02-13T01:10:30.776Z,101261.84
2023-02-13T01:13:21.133Z,101295.19
2023-02-13T01:16:08.667Z,101292.59
2023-02-13T01:18:55.949Z,101261.22
2023-02-13T01:21:44.377Z,101262.44
2023-02-13T01:24:33.376Z,101279.78
2023-02-13T01:27:20.438Z,101271.25
2023-02-13T01:30:13.634Z,101288.59
2023-02-13T01:33:00.682Z,101272.44
2023-02-13T01:35:47.714Z,101271.53
2023-02-13T01:38:34.818Z,101282.94
2023-02-13T01:41:22.280Z,101246.41
2023-02-13T01:44:47.849Z,101275.09
2023-02-13T01:47:48.106Z,101266.47
2023-02-13T01:50:39.504Z,101282.97
2023-02-13T01:53:32.364Z,101271.81
2023-02-13T01:56:28.792Z,101279.06
2023-02-13T01:59:20.264Z,101270.41
2023-02-13T02:02:07.873Z,101254.06
2023-02-13T02:04:56.145Z,101260.66
2023-02-13T02:07:43.436Z,101264.94
2023-02-13T02:10:32.671Z,101261.41
2023-02-13T02:13:21.353Z,101266.50
2023-02-13T02:16:08.638Z,101243.03
2023-02-13T02:18:56.167Z,101257.28
2023-02-13T02:21:47.261Z,101241.53
2023-02-13T02:24:46.098Z,101277.50
2023-02-13T02:28:04.866Z,101273.28
2023-02-13T02:31:19.657Z,101279.06
2023-02-13T02:34:28.161Z,101274.53
2023-02-13T02:37:39.975Z,101275.53
2023-02-13T02:40:33.820Z,101278.88
2023-02-13T02:43:29.338Z,101276.84
2023-02-13T02:46:35.901Z,101275.84
2023-02-13T02:49:42.000Z,101247.16
2023-02-13T02:53:05.240Z,101254.41
2023-02-13T02:56:14.198Z,101263.56
2023-02-13T02:59:31.804Z,101251.25
2023-02-13T03:02:48.199Z,101253.13
2023-02-13T03:05:57.773Z,101252.06
2023-02-13T03:09:12.917Z,101261.75
2023-02-13T03:12:19.781Z,101248.97
2023-02-13T03:15:07.539Z,101240.88
2023-02-13T03:18:13.937Z,101251.63
2023-02-13T03:21:32.385Z,101256.63
2023-02-13T03:24:33.887Z,101250.47
2023-02-13T03:27:57.577Z,101247.69
2023-02-13T03:31:15.791Z,101249.69
2023-02-13T03:34:23.518Z,101234.16
2023-02-13T03:37:32.659Z,101241.91
2023-02-13T03:40:29.780Z,101249.63
2023-02-13T03:43:19.129Z,101233.47
2023-02-13T03:46:07.330Z,101255.69
2023-02-13T03:49:15.248Z,101254.53
2023-02-13T03:52:11.836Z,101237.28
2023-02-13T03:55:25.827Z,101248.00
2023-02-13T03:58:42.026Z,101241.72
2023-02-13T04:01:32.866Z,101228.03
2023-02-13T04:04:42.038Z,101255.03
2023-02-13T04:07:32.877Z,101250.69
2023-02-13T04:10:20.798Z,101262.78
2023-02-13T04:13:07.826Z,101269.19
2023-02-13T04:16:01.304Z,101268.28
2023-02-13T04:18:49.893Z,101259.66
2023-02-13T04:21:40.471Z,101232.03
2023-02-13T04:24:28.040Z,101251.13
2023-02-13T04:27:17.432Z,101227.00
2023-02-13T04:30:05.414Z,101245.88
2023-02-13T04:32:53.066Z,101228.69
2023-02-13T04:35:40.148Z,101248.34
2023-02-13T04:38:27.166Z,101235.25
2023-02-13T04:41:14.347Z,101245.13
2023-02-13T04:44:01.338Z,101237.97
2023-02-13T04:46:48.458Z,101228.00
2023-02-13T04:49:35.497Z,101233.19
2023-02-13T04:52:22.578Z,101215.88
2023-02-13T04:55:09.703Z,101236.13
2023-02-13T04:57:57.187Z,101238.78
2023-02-13T05:00:44.275Z,101237.31
2023-02-13T05:03:31.363Z,101246.00
2023-02-13T05:06:18.395Z,101240.97
2023-02-13T05:09:05.413Z,101240.13
2023-02-13T05:11:55.270Z,101240.09
2023-02-13T05:14:42.379Z,101237.63
2023-02-13T05:17:29.374Z,101225.44
2023-02-13T05:20:16.771Z,101237.56
2023-02-13T05:23:22.485Z,101240.34
2023-02-13T05:26:09.622Z,101240.34
2023-02-13T05:29:15.557Z,101240.22
2023-02-13T05:32:02.825Z,101232.63
2023-02-13T05:34:49.922Z,101217.25
2023-02-13T05:37:37.373Z,101240.81
2023-02-13T05:40:24.528Z,101243.50
2023-02-13T05:43:11.589Z,101230.41
2023-02-13T05:46:05.976Z,101237.19
2023-02-13T05:48:53.349Z,101239.03
2023-02-13T05:51:40.391Z,101224.84
2023-02-13T05:54:27.514Z,101244.06
2023-02-13T05:57:14.603Z,101240.56
2023-02-13T06:00:01.879Z,101244.13
2023-02-13T06:02:48.973Z,101250.22
2023-02-13T06:05:36.214Z,101237.25
2023-02-13T06:08:24.212Z,101250.22
2023-02-13T06:11:11.657Z,101252.66
2023-02-13T06:13:58.658Z,101263.25
2023-02-13T06:16:45.733Z,101252.06
2023-02-13T06:19:32.739Z,101239.34
2023-02-13T06:22:19.775Z,101251.31
2023-02-13T06:25:06.969Z,101240.81
2023-02-13T06:27:54.104Z,101252.34
2023-02-13T06:30:41.191Z,101247.44
2023-02-13T06:33:28.234Z,101259.03
2023-02-13T06:36:15.249Z,101267.16
2023-02-13T06:39:02.354Z,101263.84
2023-02-13T06:41:49.426Z,101274.59
2023-02-13T06:44:36.493Z,101257.16
2023-02-13T06:47:23.504Z,101271.88
2023-02-13T06:50:12.171Z,101274.50
2023-02-13T06:53:00.746Z,101268.56
2023-02-13T06:55:47.822Z,101277.03
2023-02-13T06:58:35.009Z,101275.13
2023-02-13T07:01:22.129Z,101261.63
2023-02-13T07:04:09.184Z,101253.50
2023-02-13T07:06:57.188Z,101267.00
2023-02-13T07:09:44.152Z,101273.91
2023-02-13T07:12:33.682Z,101278.63
2023-02-13T07:15:20.728Z,101275.97
2023-02-13T07:18:08.045Z,101269.06
2023-02-13T07:20:55.255Z,101284.63
2023-02-13T07:23:42.527Z,101260.06
2023-02-13T07:26:29.788Z,101242.31
2023-02-13T07:29:17.634Z,101263.38
2023-02-13T07:32:05.386Z,101254.38
2023-02-13T07:35:01.543Z,101254.91
2023-02-13T07:37:49.283Z,101267.59
2023-02-13T07:40:36.363Z,101278.63
2023-02-13T07:43:23.517Z,101243.03
2023-02-13T07:46:10.871Z,101262.16
2023-02-13T07:48:57.959Z,101280.16
2023-02-13T07:51:45.047Z,101281.13
2023-02-13T07:54:32.429Z,101270.84
2023-02-13T07:57:19.624Z,101275.13
2023-02-13T08:00:07.466Z,101268.13
2023-02-13T08:02:54.629Z,101267.19
2023-02-13T08:05:41.801Z,101278.81
2023-02-13T08:08:28.947Z,101280.94
2023-02-13T08:11:51.848Z,101283.25
2023-02-13T08:14:38.942Z,101281.94
2023-02-13T08:17:26.052Z,101262.50
2023-02-13T08:20:13.159Z,101270.56
2023-02-13T08:23:05.010Z,101273.22
2023-02-13T08:25:53.559Z,101264.41
2023-02-13T08:28:41.965Z,101286.41
2023-02-13T08:31:29.309Z,101289.59
2023-02-13T08:34:16.536Z,101277.22
2023-02-13T08:37:04.252Z,101269.16
2023-02-13T08:39:51.623Z,101295.91
2023-02-13T08:42:39.345Z,101290.00
2023-02-13T08:45:26.370Z,101300.53
2023-02-13T08:48:13.484Z,101280.41
2023-02-13T08:51:00.615Z,101290.59
2023-02-13T08:53:47.690Z,101285.63
2023-02-13T08:56:35.276Z,101291.78
2023-02-13T08:59:22.538Z,101293.22
2023-02-13T09:02:11.896Z,101286.84
2023-02-13T09:04:59.039Z,101294.72
2023-02-13T09:07:46.187Z,101279.03
2023-02-13T09:10:33.597Z,101283.16
2023-02-13T09:13:20.648Z,101282.88
2023-02-13T09:16:08.742Z,101291.28
2023-02-13T09:18:55.798Z,101273.56
2023-02-13T09:21:42.924Z,101284.59
2023-02-13T09:24:29.981Z,101283.41
2023-02-13T09:27:17.087Z,101290.66
2023-02-13T09:30:04.402Z,101291.75
2023-02-13T09:32:55.325Z,101283.06
2023-02-13T09:35:43.952Z,101286.38
2023-02-13T09:38:31.112Z,101296.03
2023-02-13T09:41:34.402Z,101297.78
2023-02-13T09:44:43.339Z,101252.13
2023-02-13T09:47:34.677Z,101319.94
2023-02-13T09:50:29.789Z,101308.41
2023-02-13T09:53:22.360Z,101310.25
2023-02-13T09:56:28.409Z,101311.47
2023-02-13T09:59:44.684Z,101329.19
2023-02-13T10:02:50.607Z,101324.94
2023-02-13T10:05:52.451Z,101317.94
2023-02-13T10:09:01.713Z,101317.56
2023-02-13T10:12:12.997Z,101318.66
2023-02-13T10:15:21.875Z,101310.78
2023-02-13T10:18:19.687Z,101304.31
2023-02-13T10:21:10.309Z,101314.13
2023-02-13T10:24:10.037Z,101305.00
2023-02-13T10:27:00.278Z,101311.59
2023-02-13T10:30:05.391Z,101300.56
2023-02-13T10:33:19.204Z,101297.16
2023-02-13T10:36:09.309Z,101307.44
2023-02-13T10:39:05.571Z,101312.81
2023-02-13T10:41:58.023Z,101314.50
2023-02-13T10:44:48.201Z,101305.84
2023-02-13T10:47:59.339Z,101309.50
2023-02-13T10:50:58.724Z,101269.19
2023-02-13T10:54:18.166Z,101294.38
2023-02-13T10:57:24.742Z,101299.88
2023-02-13T11:00:17.955Z,101300.44
2023-02-13T11:03:05.072Z,101293.25
2023-02-13T11:05:54.024Z,101287.63
2023-02-13T11:08:44.730Z,101278.53
2023-02-13T11:11:36.590Z,101283.34
2023-02-13T11:14:26.856Z,101280.75
2023-02-13T11:17:19.027Z,101274.00
2023-02-13T11:20:26.075Z,101273.28
2023-02-13T11:23:31.089Z,101259.59
2023-02-13T11:26:30.188Z,101266.66
2023-02-13T11:29:29.994Z,101264.84
2023-02-13T11:32:17.267Z,101265.72
2023-02-13T11:35:27.740Z,101261.13
2023-02-13T11:38:20.360Z,101257.28
2023-02-13T11:41:15.442Z,101247.41
2023-02-13T11:44:04.905Z,101258.81
2023-02-13T11:46:54.492Z,101266.66
2023-02-13T11:49:46.741Z,101272.00
2023-02-13T11:52:37.427Z,101261.47
2023-02-13T11:55:31.668Z,101272.88
2023-02-13T11:58:25.445Z,101264.66
2023-02-13T12:01:21.865Z,101284.72
2023-02-13T12:04:22.217Z,101266.81
2023-02-13T12:07:22.231Z,101252.47
2023-02-13T12:10:21.176Z,101257.59
2023-02-13T12:13:33.856Z,101254.13
2023-02-13T12:16:34.205Z,101262.84
2023-02-13T12:19:34.050Z,101266.19
2023-02-13T12:22:29.956Z,101260.25
2023-02-13T12:25:25.101Z,101262.53
2023-02-13T12:28:28.012Z,101259.47
2023-02-13T12:31:33.258Z,101255.41
2023-02-13T12:34:32.247Z,101249.53
2023-02-13T12:37:35.889Z,101246.72
2023-02-13T12:40:34.762Z,101244.00
2023-02-13T12:43:40.274Z,101247.59
2023-02-13T12:46:47.001Z,101225.69
2023-02-13T12:49:55.912Z,101224.25
2023-02-13T12:53:20.397Z,101220.16
2023-02-13T12:56:23.529Z,101212.28
2023-02-13T12:59:36.086Z,101212.34
2023-02-13T13:02:52.044Z,101211.50
2023-02-13T13:06:12.155Z,101219.75
2023-02-13T13:09:05.938Z,101224.56
2023-02-13T13:11:59.021Z,101234.78
2023-02-13T13:14:58.221Z,101226.09
2023-02-13T13:18:05.498Z,101207.25
2023-02-13T13:20:58.584Z,101212.94
2023-02-13T13:23:51.635Z,101229.75
2023-02-13T13:29:26.534Z,101225.44
2023-02-13T13:32:21.744Z,101222.41
2023-02-13T13:35:16.001Z,101209.50
2023-02-13T13:38:11.551Z,101218.75
2023-02-13T13:41:24.930Z,101211.84
2023-02-13T13:44:20.927Z,101221.47
2023-02-13T13:47:16.644Z,101210.38
2023-02-13T13:50:07.127Z,101215.53
2023-02-13T13:53:09.396Z,101205.38
2023-02-13T13:55:56.611Z,101199.56
2023-02-13T13:58:46.023Z,101206.22
2023-02-13T14:01:33.189Z,101209.84
2023-02-13T14:04:32.074Z,101199.66
2023-02-13T14:07:24.636Z,101198.31
2023-02-13T14:10:35.092Z,101183.25
2023-02-13T14:13:36.470Z,101183.75
2023-02-13T14:16:46.350Z,101183.53
2023-02-13T14:19:38.470Z,101177.91
2023-02-13T14:22:36.469Z,101176.41
2023-02-13T14:25:28.157Z,101156.50
2023-02-13T14:28:23.799Z,101166.38
2023-02-13T14:31:22.671Z,101164.31
2023-02-13T14:34:23.259Z,101133.31
2023-02-13T14:37:23.099Z,101158.25
2023-02-13T14:40:27.851Z,101173.81
2023-02-13T14:43:37.133Z,101156.81
2023-02-13T14:46:51.498Z,101116.59
2023-02-13T14:49:42.584Z,101149.88
2023-02-13T14:52:35.409Z,101165.66
2023-02-13T14:55:40.575Z,101163.63
2023-02-13T14:58:33.925Z,101147.53
2023-02-13T15:01:30.347Z,101162.78
2023-02-13T15:04:29.953Z,101136.47
2023-02-13T15:07:24.882Z,101151.47
2023-02-13T15:10:49.716Z,101153.78
2023-02-13T15:13:41.090Z,101158.03
2023-02-13T15:16:28.285Z,101145.78
2023-02-13T15:19:20.789Z,101155.38
2023-02-13T15:22:08.191Z,101168.34
2023-02-13T15:24:55.290Z,101152.78
2023-02-13T15:27:44.147Z,101158.25
2023-02-13T15:30:33.318Z,101155.66
2023-02-13T15:33:22.238Z,101145.44
2023-02-13T15:36:18.235Z,101152.84
2023-02-13T15:39:15.720Z,101148.47
2023-02-13T15:42:03.949Z,101141.97
2023-02-13T15:44:56.563Z,101145.63
2023-02-13T15:47:59.681Z,101081.09
2023-02-13T15:50:49.998Z,101147.50
2023-02-13T15:53:50.976Z,101142.94
2023-02-13T15:56:38.344Z,101145.09
2023-02-13T15:59:37.332Z,101137.44
2023-02-13T16:02:48.214Z,101127.25
2023-02-13T16:05:41.668Z,101125.72
2023-02-13T16:08:38.488Z,101128.75
2023-02-13T16:11:38.740Z,101141.91
2023-02-13T16:14:28.760Z,101143.94
2023-02-13T16:17:30.132Z,101132.94
2023-02-13T16:20:22.822Z,101127.81
2023-02-13T16:23:20.151Z,101145.47
2023-02-13T16:26:15.931Z,101152.97
2023-02-13T16:29:03.641Z,101151.03
2023-02-13T16:31:52.654Z,101156.28
2023-02-13T16:34:40.207Z,101160.31
2023-02-13T16:37:32.656Z,101164.53
2023-02-13T16:40:32.371Z,101175.97
2023-02-13T16:43:46.334Z,101179.13
2023-02-13T16:46:40.402Z,101176.84
2023-02-13T16:49:30.764Z,101162.63
2023-02-13T16:52:24.371Z,101156.13
2023-02-13T16:55:23.061Z,101172.09
2023-02-13T16:58:16.051Z,101180.44
2023-02-13T17:01:05.387Z,101181.78
2023-02-13T17:03:55.636Z,101164.84
2023-02-13T17:06:43.233Z,101180.59
2023-02-13T17:09:30.778Z,101181.72
2023-02-13T17:12:19.793Z,101189.66
2023-02-13T17:15:13.837Z,101183.53
2023-02-13T17:18:01.806Z,101177.69
2023-02-13T17:20:50.285Z,101196.25
2023-02-13T17:23:38.377Z,101197.22
2023-02-13T17:26:26.093Z,101180.63
2023-02-13T17:29:16.799Z,101178.16
2023-02-13T17:32:05.036Z,101192.47
2023-02-13T17:34:53.321Z,101190.25
2023-02-13T17:37:42.881Z,101176.19
2023-02-13T17:40:32.295Z,101177.59
2023-02-13T17:43:21.029Z,101183.19
2023-02-13T17:46:10.338Z,101172.25
2023-02-13T17:48:58.177Z,101155.16
2023-02-13T17:51:46.102Z,101183.00
2023-02-13T17:54:33.833Z,101163.66
2023-02-13T17:57:21.615Z,101176.13
2023-02-13T18:00:10.334Z,101170.63
2023-02-13T18:03:03.015Z,101172.59
2023-02-13T18:05:51.401Z,101159.44
2023-02-13T18:08:39.285Z,101168.97
2023-02-13T18:11:27.178Z,101168.16
2023-02-13T18:14:18.049Z,101159.25
2023-02-13T18:17:05.885Z,101155.03
2023-02-13T18:19:56.858Z,101146.47
2023-02-13T18:22:45.069Z,101162.25
2023-02-13T18:25:33.499Z,101151.06
2023-02-13T18:28:21.428Z,101106.88
2023-02-13T18:31:12.443Z,101153.69
2023-02-13T18:34:01.328Z,101154.81
2023-02-13T18:36:50.048Z,101154.78
2023-02-13T18:39:38.924Z,101157.44
2023-02-13T18:42:27.094Z,101167.03
2023-02-13T18:45:18.181Z,101152.97
2023-02-13T18:48:08.894Z,101138.94
2023-02-13T18:51:00.061Z,101139.81
2023-02-13T18:53:50.265Z,101174.13
2023-02-13T18:56:40.954Z,101154.88
2023-02-13T18:59:28.624Z,101157.44
2023-02-13T19:05:17.804Z,101139.97
2023-02-13T19:08:06.354Z,101139.63
2023-02-13T19:10:54.230Z,101132.34
2023-02-13T19:13:43.257Z,101119.47
2023-02-13T19:16:33.024Z,101116.88
2023-02-13T19:19:24.156Z,101123.91
2023-02-13T19:22:12.282Z,101124.72
2023-02-13T19:25:00.533Z,101114.50
2023-02-13T19:27:49.439Z,101084.16
2023-02-13T19:30:37.715Z,101105.91
2023-02-13T19:33:25.952Z,101081.47
2023-02-13T19:36:19.875Z,101116.16
2023-02-13T19:39:09.761Z,101105.31
2023-02-13T19:41:58.535Z,101108.22
2023-02-13T19:44:48.204Z,101120.28
2023-02-13T19:47:37.303Z,101092.00
2023-02-13T19:50:25.499Z,101043.16
2023-02-13T19:53:13.914Z,101066.66
2023-02-13T19:56:11.176Z,101098.44
2023-02-13T19:58:59.665Z,101069.75
2023-02-13T20:01:48.087Z,101062.31
2023-02-13T20:04:38.090Z,101082.78
2023-02-13T20:07:26.672Z,101077.44
2023-02-13T20:10:15.261Z,101078.66
2023-02-13T20:13:04.901Z,101127.56
2023-02-13T20:15:57.392Z,101073.63
2023-02-13T20:18:50.956Z,101105.75
2023-02-13T20:21:41.879Z,101051.31
2023-02-13T20:24:31.559Z,101123.81
2023-02-13T20:27:19.830Z,101070.50
2023-02-13T20:30:09.860Z,101101.84
2023-02-13T20:32:58.318Z,101053.63
2023-02-13T20:35:46.920Z,101079.25
2023-02-13T20:38:35.203Z,101055.09
2023-02-13T20:41:27.597Z,101058.28
2023-02-13T20:44:17.630Z,101067.09
2023-02-13T20:47:05.788Z,101028.88
2023-02-13T20:49:56.523Z,101077.53
2023-02-13T20:52:46.363Z,101034.41
2023-02-13T20:55:34.058Z,101046.66
2023-02-13T20:58:22.481Z,101043.22
2023-02-13T21:01:18.040Z,101054.88
2023-02-13T21:04:05.975Z,101098.97
2023-02-13T21:06:54.323Z,101121.78
2023-02-13T21:09:41.766Z,101124.59
2023-02-13T21:12:29.680Z,101103.34
2023-02-13T21:15:19.442Z,101139.28
2023-02-13T21:18:07.169Z,101136.88
2023-02-13T21:20:55.677Z,101108.97
2023-02-13T21:23:43.294Z,101108.09
2023-02-13T21:26:31.356Z,101108.09
2023-02-13T21:29:19.514Z,101114.22
2023-02-13T21:32:07.666Z,101105.00
2023-02-13T21:34:58.407Z,101098.38
2023-02-13T21:37:46.124Z,101092.09
2023-02-13T21:40:33.301Z,101126.03
2023-02-13T21:43:20.926Z,101114.19
2023-02-13T21:46:18.311Z,101100.59
2023-02-13T21:49:07.567Z,101076.69
2023-02-13T21:51:55.069Z,101123.78
2023-02-13T21:54:42.111Z,101130.91
2023-02-13T21:57:29.422Z,101102.31
2023-02-13T22:00:16.957Z,101123.50
2023-02-13T22:03:04.213Z,101118.81
2023-02-13T22:05:51.472Z,101111.84
2023-02-13T22:08:39.366Z,101126.44
2023-02-13T22:11:27.257Z,101111.84
2023-02-13T22:14:17.282Z,101165.09
2023-02-13T22:17:04.713Z,101177.50
2023-02-13T22:19:51.909Z,101180.16
2023-02-13T22:22:38.979Z,101166.78
2023-02-13T22:25:26.198Z,101163.97
2023-02-13T22:28:13.231Z,101165.72
2023-02-13T22:31:01.057Z,101110.13
2023-02-13T22:33:55.363Z,101113.31
2023-02-13T22:36:49.004Z,101139.78
2023-02-13T22:39:36.112Z,101128.56
2023-02-13T22:42:23.257Z,101130.50
2023-02-13T22:45:10.240Z,101154.31
2023-02-13T22:47:57.890Z,101148.38
2023-02-13T22:50:45.069Z,101129.84
2023-02-13T22:53:33.195Z,101172.75
2023-02-13T22:56:20.328Z,101164.97
2023-02-13T22:59:07.401Z,101119.63
2023-02-13T23:01:54.459Z,101156.09
2023-02-13T23:04:41.565Z,101161.97
2023-02-13T23:07:28.846Z,101120.38
2023-02-13T23:10:19.378Z,101172.38
2023-02-13T23:13:10.845Z,101158.00
2023-02-13T23:15:57.949Z,101114.66
2023-02-13T23:18:45.408Z,101184.19
2023-02-13T23:21:32.494Z,101197.16
2023-02-13T23:24:20.727Z,101196.84
2023-02-13T23:27:07.813Z,101172.78
2023-02-13T23:29:54.899Z,101222.34
2023-02-13T23:32:42.050Z,101213.75
2023-02-13T23:35:29.069Z,101214.84
2023-02-13T23:38:16.120Z,101222.84
2023-02-13T23:41:09.647Z,101209.94
2023-02-13T23:43:56.744Z,101216.81
2023-02-13T23:46:44.011Z,101210.78
2023-02-13T23:49:31.251Z,101203.81
2023-02-13T23:52:18.432Z,101201.03
2023-02-13T23:55:05.974Z,101223.88
2023-02-13T23:57:53.105Z,101226.72
